WetterOnline ( https://www.wetteronline.de )

Wetter aktuell Jagel

Aktuelles Wetter: Schleswig (48m)

6-stündlich | Neueste Meldungen
Ortszeit Temperatur Wetter
Sa, 18.01. 7:00 4.4° C wolkig
Sa, 18.01. 1:00 7.0° C bewölkt
Fr, 17.01. 19:00 7.4° C leichter Regen
Fr, 17.01. 13:00 9.2° C wolkig
Fr, 17.01. 7:00 5.3° C bedeckt
Fr, 17.01. 1:00 5.2° C wolkig
Do, 16.01. 19:00 5.2° C wolkig
Do, 16.01. 13:00 7.1° C bedeckt
Ortszeit Temperatur Wetter
Sa, 18.01. 12:00 5.1° C bedeckt
Sa, 18.01. 11:50 5.1° C bedeckt
Sa, 18.01. 11:40 5.1° C Sprühregen
Sa, 18.01. 11:30 5.2° C bewölkt
Sa, 18.01. 11:20 5.2° C bewölkt
Sa, 18.01. 11:10 5.2° C bewölkt
Sa, 18.01. 11:00 4.9° C bewölkt
Sa, 18.01. 10:30 5.0° C bedeckt
Sa, 18.01. 10:00 5.0° C Sprühregen
Ortszeit Relative Feuchte Sichtweite
Sa, 18.01. 7:00 91% 26 km
Sa, 18.01. 1:00 87% 21 km
Fr, 17.01. 19:00 96% 6 km
Fr, 17.01. 13:00 72% 50 km
Fr, 17.01. 7:00 89% 28 km
Fr, 17.01. 1:00 91% 16 km
Do, 16.01. 19:00 91% 17 km
Do, 16.01. 13:00 87% 14 km
Ortszeit Relative Feuchte Sichtweite
Sa, 18.01. 12:00 91% 26 km
Sa, 18.01. 11:50 91% -
Sa, 18.01. 11:40 90% -
Sa, 18.01. 11:30 87% 30 km
Sa, 18.01. 11:20 87% -
Sa, 18.01. 11:10 89% -
Sa, 18.01. 11:00 88% 26 km
Sa, 18.01. 10:30 87% 27 km
Sa, 18.01. 10:00 87% 18 km
Ortszeit Niederschlagsmenge Niederschlagsart
Sa, 18.01. 7:00 2 l/m2 in 12 Std. Regen
Sa, 18.01. 1:00 2 l/m2 in 6 Std. Regen
Fr, 17.01. 19:00 0.1 l/m2 in 12 Std. Regen
Fr, 17.01. 13:00 0.0 l/m2 in 6 Std. -
Fr, 17.01. 7:00 0.0 l/m2 in 12 Std. -
Fr, 17.01. 1:00 0.0 l/m2 in 6 Std. -
Do, 16.01. 19:00 0.0 l/m2 in 12 Std. -
Do, 16.01. 13:00 0.0 l/m2 in 6 Std. -
Ortszeit Niederschlagsmenge Niederschlagsart
Sa, 18.01. 12:00 0.1 l/m2 in 1 Std. Regen
Sa, 18.01. 11:50 keine Meldung -
Sa, 18.01. 11:40 keine Meldung -
Sa, 18.01. 11:30 0.1 l/m2 in 1 Std. Schneeregen
Sa, 18.01. 11:20 keine Meldung -
Sa, 18.01. 11:10 keine Meldung -
Sa, 18.01. 11:00 0.1 l/m2 in 1 Std. Regen
Sa, 18.01. 10:30 0.1 l/m2 in 1 Std. Schneeregen
Sa, 18.01. 10:00 0.1 l/m2 in 1 Std. Regen
Ortszeit Stärke Spitze Richtung
km/h Bft. km/h Grad Sektor
Sa, 18.01. 7:00 19 3 56 220° SW
Sa, 18.01. 1:00 25 4 43 230° SW
Fr, 17.01. 19:00 13 3 31 210° SW
Fr, 17.01. 13:00 13 3 35 190° S
Fr, 17.01. 7:00 9 2 22 180° S
Fr, 17.01. 1:00 11 2 33 160° S
Do, 16.01. 19:00 9 2 28 170° S
Do, 16.01. 13:00 17 3 44 230° SW
Ortszeit Stärke Spitze Richtung
km/h Bft. km/h Grad Sektor
Sa, 18.01. 12:00 20 4 46 230° SW
Sa, 18.01. 11:50 20 4 - 230° SW
Sa, 18.01. 11:40 24 4 - 230° SW
Sa, 18.01. 11:30 26 4 44 230° SW
Sa, 18.01. 11:20 26 4 - 230° SW
Sa, 18.01. 11:10 26 4 - 240° SW
Sa, 18.01. 11:00 26 4 56 230° SW
Sa, 18.01. 10:30 30 5 56 240° SW
Sa, 18.01. 10:00 25 4 50 230° SW
Ortszeit Untergrenze Bedeckung Gattung
total tief tief mittel hoch
Sa, 18.01. 7:00 360 m 5/8 5/8 - - -
Sa, 18.01. 1:00 450 m 7/8 7/8 - - -
Fr, 17.01. 19:00 180 m 8/8 8/8 - - -
Fr, 17.01. 13:00 9000 m 8/8 0/8 - - -
Fr, 17.01. 7:00 6600 m 8/8 8/8 - - -
Fr, 17.01. 1:00 9000 m 8/8 0/8 - - -
Do, 16.01. 19:00 9000 m 8/8 0/8 - - -
Do, 16.01. 13:00 270 m 8/8 8/8 - - -
Ortszeit Bedeckungsgrad in Achtel und Wolkenuntergrenze
Sa, 18.01. 12:00 7(240m) 7(390m) 8(570m)
Sa, 18.01. 11:50 7(240m) 7(390m) 8(570m)
Sa, 18.01. 11:40 7(270m)
Sa, 18.01. 11:30 7(300m)
Sa, 18.01. 11:20 7(300m)
Sa, 18.01. 11:10 7(300m)
Sa, 18.01. 11:00 7(300m)
Sa, 18.01. 10:30 7(330m) 8(510m)
Sa, 18.01. 10:00 7(360m)
Ortszeit Luftdruck NN (hPa) Tendenz (hPa in 3 Std.)
Sa, 18.01. 7:00 1015 + 1,4
Sa, 18.01. 1:00 1012 + 0,6
Fr, 17.01. 19:00 1012 - 0,1
Fr, 17.01. 13:00 1013 - 1,5
Fr, 17.01. 7:00 1016 - 1,9
Fr, 17.01. 1:00 1020 - 1,5
Do, 16.01. 19:00 1024 - 0,7
Do, 16.01. 13:00 1025 + 0,9
Ortszeit Luftdruck NN (hPa) Tendenz (hPa in 3 Std.)
Sa, 18.01. 12:00 1017 + 1,5
Sa, 18.01. 11:50 1017 keine Meldung
Sa, 18.01. 11:40 1017 keine Meldung
Sa, 18.01. 11:30 1017 + 1,4
Sa, 18.01. 11:20 1017 keine Meldung
Sa, 18.01. 11:10 1017 keine Meldung
Sa, 18.01. 11:00 1016 + 1,2
Sa, 18.01. 10:30 1016 + 1,3
Sa, 18.01. 10:00 1016 + 1,3
Ortszeit Schneehöhe (cm)
Sa, 18.01. 7:00 0
Sa, 18.01. 1:00 0
Fr, 17.01. 19:00 0
Fr, 17.01. 13:00 0
Fr, 17.01. 7:00 0
Fr, 17.01. 1:00 0
Do, 16.01. 19:00 0
Do, 16.01. 13:00 0
Ortszeit Schneehöhe (cm)
Sa, 18.01. 12:00 0
Sa, 18.01. 11:50 0
Sa, 18.01. 11:40 0
Sa, 18.01. 11:30 0
Sa, 18.01. 11:20 0
Sa, 18.01. 11:10 0
Sa, 18.01. 11:00 0
Sa, 18.01. 10:30 0
Sa, 18.01. 10:00 0
Link zu dieser Seite / Seite empfehlen

Das Wetter in ...